Wednesday, April 25, 2018, 5:06 AM EDT
Back to Local

KFMH, Otis Air National Guard Base

Location: Mashpee, MA, United States Lat: 41.65
Local Time: 5:06 AM EDT ( 9:06 GMT) Lon: -70.517
Time Zone: US/Eastern Elev: 131 ft

Show me the last for .
Show Decoded

2018-04-25 04:35 METAR KFMH 250835Z AUTO 14012KT 10SM 11/07 A3016 RMK AO2 =
2018-04-25 04:15 METAR KFMH 250815Z AUTO 15013G23KT 10SM 11/07 A3017 RMK AO2 LTG DSNT S =
2018-04-25 03:55 METAR KFMH 250755Z AUTO 16012KT 10SM 10/07 A3018 RMK AO2 =
2018-04-25 03:35 METAR KFMH 250735Z AUTO 14009KT 10SM 10/07 A3018 RMK AO2 =
2018-04-25 03:15 METAR KFMH 250715Z AUTO 14010KT 10SM 10/07 A3019 RMK AO2 =
2018-04-25 02:55 METAR KFMH 250655Z AUTO 16007KT 10SM 10/07 A3020 RMK AO2 =
2018-04-25 02:35 METAR KFMH 250635Z AUTO 15007KT 10SM BKN055 OVC070 10/07 A3021 RMK AO2 =
2018-04-25 02:15 METAR KFMH 250615Z AUTO 15010KT 10SM 10/07 A3022 RMK AO2 =
2018-04-25 01:55 METAR KFMH 250555Z AUTO 14009KT 10SM OVC070 10/07 A3023 RMK AO2 =
2018-04-25 01:35 METAR KFMH 250535Z AUTO 15011KT 10SM 10/07 A3024 RMK AO2 =
2018-04-25 00:55 METAR KFMH 250455Z AUTO 14008KT 10SM FEW042 SCT055 OVC065 09/05 A3026 RMK AO2 =
2018-04-25 00:35 METAR KFMH 250435Z AUTO 14008KT 10SM SCT050 OVC065 09/05 A3027 RMK AO2 =
2018-04-25 00:15 METAR KFMH 250415Z AUTO 15005KT 10SM SCT050 BKN060 OVC065 09/04 A3028 RMK AO2 =
2018-04-24 23:55 METAR KFMH 250355Z AUTO 13005KT 10SM FEW041 FEW050 OVC060 09/03 A3028 RMK AO2 =
2018-04-24 23:35 METAR KFMH 250335Z AUTO 12004KT 10SM 09/02 A3029 RMK AO2 =
2018-04-24 23:15 METAR KFMH 250315Z AUTO 14006KT 10SM FEW042 BKN050 OVC065 09/02 A3029 RMK AO2 =
2018-04-24 22:55 METAR KFMH 250255Z AUTO 14007KT 10SM 09/01 A3030 RMK AO2 =
2018-04-24 22:35 METAR KFMH 250235Z AUTO 15007KT 10SM 09/01 A3030 RMK AO2 =
2018-04-24 22:15 METAR KFMH 250215Z AUTO 15007KT 10SM 10/M01 A3031 RMK AO2 =
2018-04-24 21:55 METAR KFMH 250155Z AUTO 16007KT 10SM 10/M01 A3031 RMK AO2 =
2018-04-24 21:35 METAR KFMH 250135Z AUTO 15008G14KT 10SM 10/00 A3032 RMK AO2 =
2018-04-24 21:15 METAR KFMH 250115Z AUTO 16007KT 10SM 10/02 A3032 RMK AO2 =
2018-04-24 20:55 METAR KFMH 250055Z AUTO 17009KT 10SM OVC060 10/04 A3033 RMK AO2 =
2018-04-24 20:35 METAR KFMH 250035Z AUTO 18008KT 10SM SCT047 BKN060 09/05 A3033 RMK AO2 =
2018-04-24 20:15 METAR KFMH 250015Z AUTO 17008KT 10SM SCT046 09/05 A3032 RMK AO2 =
2018-04-24 19:55 METAR KFMH 242355Z AUTO 16009KT 10SM 10/06 A3032 RMK AO2 =
2018-04-24 19:35 METAR KFMH 242335Z AUTO 16009KT 10SM CLR 10/04 A3031 RMK AO2 =
2018-04-24 19:15 METAR KFMH 242315Z AUTO 16008KT 10SM CLR 11/05 A3031 RMK AO2 =
2018-04-24 18:55 METAR KFMH 242255Z AUTO 16008KT 10SM CLR 11/04 A3031 RMK AO2 =
2018-04-24 18:35 METAR KFMH 242235Z AUTO 18010KT 10SM CLR 11/03 A3032 RMK AO2 =
2018-04-24 18:15 METAR KFMH 242215Z AUTO 17011KT 10SM CLR 12/02 A3033 RMK AO2 =
2018-04-24 17:55 METAR KFMH 242155Z AUTO 17011KT 10SM CLR 12/01 A3034 RMK AO2 =
2018-04-24 17:35 METAR KFMH 242135Z AUTO 17011KT 10SM CLR 13/00 A3034 RMK AO2 =
2018-04-24 17:15 METAR KFMH 242115Z AUTO 17012KT 10SM CLR 14/M01 A3034 RMK AO2 =
2018-04-24 16:55 METAR KFMH 242055Z AUTO 17012KT 10SM CLR 13/M01 A3034 RMK AO2 =
2018-04-24 16:35 METAR KFMH 242035Z AUTO 17014KT 10SM CLR 15/M02 A3034 RMK AO2 =
2018-04-24 16:15 METAR KFMH 242015Z AUTO 17013G19KT 10SM CLR 15/M01 A3034 RMK AO2 =
2018-04-24 15:55 METAR KFMH 241955Z AUTO 17014G20KT 10SM CLR 16/01 A3035 RMK AO2 =
2018-04-24 15:35 METAR KFMH 241935Z AUTO 15016KT 10SM CLR 15/01 A3035 RMK AO2 =
2018-04-24 13:35 METAR KFMH 241735Z AUTO 21014KT 180V250 10SM CLR 16/02 A3039 RMK AO2 =
2018-04-24 13:15 METAR KFMH 241715Z AUTO 18013KT 10SM CLR 16/02 A3039 RMK AO2 =
2018-04-24 12:55 METAR KFMH 241655Z AUTO 22012KT 10SM CLR 16/01 A3039 RMK AO2 =
2018-04-24 12:35 METAR KFMH 241635Z AUTO 23010G18KT 10SM CLR 16/03 A3040 RMK AO2 =
2018-04-24 12:15 METAR KFMH 241615Z AUTO 23013G19KT 10SM CLR 16/02 A3041 RMK AO2 =
2018-04-24 11:55 METAR KFMH 241555Z AUTO 24014KT 10SM CLR 15/00 A3042 RMK AO2 =
2018-04-24 11:35 METAR KFMH 241535Z AUTO 23012KT 10SM CLR 16/00 A3043 RMK AO2 =
2018-04-24 11:15 METAR KFMH 241515Z AUTO 23016KT 10SM CLR 15/M01 A3044 RMK AO2 =
2018-04-24 10:55 METAR KFMH 241455Z AUTO 23012KT 10SM CLR 15/00 A3044 RMK AO2 =
2018-04-24 10:35 METAR KFMH 241435Z AUTO 25014KT 10SM CLR 15/00 A3044 RMK AO2 =
2018-04-24 10:15 METAR KFMH 241415Z AUTO 23010G15KT 10SM CLR 14/00 A3044 RMK AO2 =
2018-04-24 09:55 METAR KFMH 241355Z AUTO 21012KT 10SM CLR 14/01 A3044 RMK AO2 =
2018-04-24 09:35 METAR KFMH 241335Z AUTO 23010G18KT 10SM CLR 13/01 A3044 RMK AO2 =
2018-04-24 09:15 METAR KFMH 241315Z AUTO 23013KT 10SM CLR 13/02 A3045 RMK AO2 =
2018-04-24 08:55 METAR KFMH 241255Z AUTO 21009KT 10SM CLR 12/03 A3045 RMK AO2 =
2018-04-24 08:35 METAR KFMH 241235Z AUTO 22007KT 10SM CLR 11/03 A3045 RMK AO2 =
2018-04-24 08:15 METAR KFMH 241215Z AUTO 19004KT 10SM CLR 09/04 A3045 RMK AO2 =
2018-04-24 07:55 METAR KFMH 241155Z AUTO 20006KT 10SM CLR 08/04 A3045 RMK AO2 =
2018-04-24 07:35 METAR KFMH 241135Z AUTO 20005KT 10SM CLR 07/04 A3045 RMK AO2 =
2018-04-24 07:15 METAR KFMH 241115Z AUTO 00000KT 10SM CLR 04/02 A3045 RMK AO2 =
2018-04-24 06:55 METAR KFMH 241055Z AUTO 00000KT 10SM CLR 01/M00 A3045 RMK AO2 =
2018-04-24 06:35 METAR KFMH 241035Z AUTO 00000KT 10SM CLR M01/M01 A3045 RMK AO2 =
2018-04-24 06:15 METAR KFMH 241015Z AUTO 00000KT 8SM CLR M02/M02 A3044 RMK AO2 =
2018-04-24 05:55 METAR KFMH 240955Z AUTO 00000KT 9SM M01/M01 A3044 RMK AO2 =
2018-04-24 05:35 METAR KFMH 240935Z AUTO 00000KT 3/4SM BR M02/M02 A3044 RMK AO2 VIS 1/4V5 =
2018-04-24 05:15 METAR KFMH 240915Z AUTO 00000KT 10SM M00/M01 A3044 RMK AO2 =

Support USWX by starting your Amazon purchase here.